Time;durP1;ratioP1;P1;durP2;ratioP2;P2;SDS_P1;SDS_P2;PMS_P1;PMS_P2;Temp;Humidity;BMP_temperature;BMP_pressure;BME280_temperature;BME280_humidity;BME280_pressure;Samples;Min_cycle;Max_cycle;Signal;HPM_P1;HPM_P2
2022/05/11 00:00:12;;;;;;;1999.90;999.90;;;12.00;99.90;;;;;;4998167;28;20051;-72
2022/05/11 00:02:38;;;;;;;1999.90;999.90;;;12.00;99.90;;;;;;4954839;28;20058;-72
2022/05/11 00:05:06;;;;;;;1999.90;999.90;;;12.00;99.90;;;;;;4962176;28;20047;-72
2022/05/11 00:07:32;;;;;;;1999.90;999.90;;;12.00;99.90;;;;;;4946317;28;20507;-72
2022/05/11 00:09:58;;;;;;;1999.90;999.90;;;12.10;99.90;;;;;;4941060;28;20092;-72
2022/05/11 00:12:23;;;;;;;1999.90;999.90;;;12.10;99.90;;;;;;4932497;28;20043;-71
2022/05/11 00:14:49;;;;;;;1999.90;999.90;;;12.20;99.90;;;;;;4947494;28;20051;-72
2022/05/11 00:17:15;;;;;;;1999.90;999.90;;;12.20;99.90;;;;;;4964049;28;20047;-72
2022/05/11 00:19:40;;;;;;;1999.90;999.90;;;12.30;99.90;;;;;;4938995;28;20035;-72
2022/05/11 00:22:06;;;;;;;1999.90;999.90;;;12.30;99.90;;;;;;4929919;28;20491;-72
2022/05/11 00:24:32;;;;;;;1999.90;999.90;;;12.40;99.90;;;;;;4997810;28;20047;-72
2022/05/11 00:26:57;;;;;;;1999.90;999.90;;;12.50;99.90;;;;;;4949397;28;20494;-72
2022/05/11 00:29:23;;;;;;;1999.90;999.90;;;12.50;99.90;;;;;;4997556;28;20100;-72
2022/05/11 00:31:49;;;;;;;1999.90;999.90;;;12.60;99.90;;;;;;4964446;28;20453;-72
2022/05/11 00:34:15;;;;;;;1999.90;999.90;;;12.60;99.90;;;;;;4946708;28;20150;-72
2022/05/11 00:36:40;;;;;;;1999.90;999.90;;;12.60;99.90;;;;;;4945855;28;20172;-72
2022/05/11 00:39:06;;;;;;;1999.90;999.90;;;12.60;99.90;;;;;;4930568;29;20513;-72
2022/05/11 00:41:32;;;;;;;1999.90;999.90;;;12.70;99.90;;;;;;4946171;28;20039;-72
2022/05/11 00:44:00;;;;;;;1999.90;999.90;;;12.70;99.90;;;;;;4946596;28;20054;-72
2022/05/11 00:46:43;;;;;;;1999.90;999.90;;;12.70;99.90;;;;;;4956768;28;20043;-72
2022/05/11 00:52:25;;;;;;;1999.90;999.90;;;12.70;99.90;;;;;;4979286;28;20101;-72
2022/05/11 00:54:58;;;;;;;1999.90;999.90;;;12.80;99.90;;;;;;4975014;28;20046;-72
2022/05/11 00:57:49;;;;;;;1999.90;999.90;;;12.80;99.90;;;;;;4981553;28;20487;-72
2022/05/11 01:00:15;;;;;;;1999.90;999.90;;;12.80;99.90;;;;;;4986023;28;20503;-72
2022/05/11 01:02:43;;;;;;;1999.90;999.90;;;12.80;99.90;;;;;;4966175;28;20051;-72
2022/05/11 01:05:09;;;;;;;1999.90;999.90;;;12.80;99.90;;;;;;4949186;28;20051;-72
2022/05/11 01:07:36;;;;;;;1999.90;999.90;;;12.80;99.90;;;;;;4940276;28;20043;-72
2022/05/11 01:10:04;;;;;;;1999.90;999.90;;;12.80;99.90;;;;;;5000557;28;20053;-72
2022/05/11 01:12:37;;;;;;;1999.90;999.90;;;12.80;99.90;;;;;;4996237;28;20126;-72
2022/05/11 01:15:04;;;;;;;1999.90;999.90;;;12.90;99.90;;;;;;4944218;28;20492;-72
2022/05/11 01:17:32;;;;;;;1999.90;999.90;;;12.90;99.90;;;;;;4997201;28;20127;-72
2022/05/11 01:20:00;;;;;;;1999.90;999.90;;;12.90;99.90;;;;;;4965035;28;20041;-72
2022/05/11 01:22:45;;;;;;;1999.90;999.90;;;12.90;99.90;;;;;;4933009;28;20051;-72
2022/05/11 01:25:12;;;;;;;1999.90;999.90;;;12.90;99.90;;;;;;4949216;28;20395;-72
2022/05/11 01:27:43;;;;;;;1999.90;999.90;;;12.90;99.90;;;;;;4964995;28;20043;-72
2022/05/11 01:30:19;;;;;;;1999.90;999.90;;;12.90;99.90;;;;;;4962180;28;20043;-72
2022/05/11 01:32:48;;;;;;;1999.90;999.90;;;12.90;99.90;;;;;;4964126;28;20107;-72
2022/05/11 01:35:38;;;;;;;1999.90;999.90;;;12.90;99.90;;;;;;4948216;28;20096;-72
2022/05/11 01:38:12;;;;;;;1999.90;999.90;;;12.90;99.90;;;;;;4948350;28;20495;-72
2022/05/11 01:40:37;;;;;;;1999.90;999.90;;;12.90;99.90;;;;;;4964937;28;20053;-72
2022/05/11 01:43:03;;;;;;;1999.90;999.90;;;12.90;99.90;;;;;;4961754;28;20047;-72
2022/05/11 01:45:29;;;;;;;1999.90;999.90;;;12.90;99.90;;;;;;4964427;28;20047;-72
2022/05/11 01:47:56;;;;;;;1999.90;999.90;;;12.80;99.90;;;;;;4948472;28;20445;-72
2022/05/11 01:50:23;;;;;;;1999.90;999.90;;;12.80;99.90;;;;;;4938318;28;20046;-72
2022/05/11 01:52:49;;;;;;;1999.90;999.90;;;12.80;99.90;;;;;;4951230;28;20078;-72
2022/05/11 01:55:15;;;;;;;1999.90;999.90;;;12.80;99.90;;;;;;4983006;28;20126;-72
2022/05/11 01:57:40;;;;;;;1999.90;999.90;;;12.80;99.90;;;;;;4932142;28;20142;-72
2022/05/11 02:00:07;;;;;;;1999.90;999.90;;;12.80;99.90;;;;;;4947558;28;20043;-72
2022/05/11 02:02:33;;;;;;;1999.90;999.90;;;12.70;99.90;;;;;;4983968;28;20129;-72
2022/05/11 02:07:52;;;;;;;1999.90;999.90;;;12.70;99.90;;;;;;4983945;28;20507;-72
2022/05/11 02:10:23;;;;;;;1999.90;999.90;;;12.70;99.90;;;;;;4931992;28;20058;-72
2022/05/11 02:12:49;;;;;;;1999.90;999.90;;;12.70;99.90;;;;;;4948177;28;20054;-72
2022/05/11 02:15:16;;;;;;;1999.90;999.90;;;12.70;99.90;;;;;;4980343;28;20078;-72
2022/05/11 02:17:43;;;;;;;1999.90;999.90;;;12.70;99.90;;;;;;4932650;28;20049;-72
2022/05/11 02:20:10;;;;;;;1999.90;999.90;;;12.70;99.90;;;;;;4933132;28;20051;-72
2022/05/11 02:22:36;;;;;;;1999.90;999.90;;;12.70;99.90;;;;;;4949647;28;20403;-72
2022/05/11 02:25:03;;;;;;;1999.90;999.90;;;12.70;99.90;;;;;;4983844;28;20050;-72
2022/05/11 02:27:31;;;;;;;1999.90;999.90;;;12.70;99.90;;;;;;4990498;28;20054;-72
2022/05/11 02:29:57;;;;;;;1999.90;999.90;;;12.80;99.90;;;;;;4948390;28;20403;-72
2022/05/11 02:32:24;;;;;;;1999.90;999.90;;;12.80;99.90;;;;;;4951425;28;20055;-72
2022/05/11 02:37:33;;;;;;;1999.90;999.90;;;12.70;99.90;;;;;;4967439;28;20089;-72
2022/05/11 02:39:59;;;;;;;1999.90;999.90;;;12.70;99.90;;;;;;4966684;28;20084;-72
2022/05/11 02:42:25;;;;;;;1999.90;999.90;;;12.80;99.90;;;;;;4985459;28;20146;-72
2022/05/11 02:44:52;;;;;;;1999.90;999.90;;;12.70;99.90;;;;;;4948224;28;20134;-72
2022/05/11 02:47:18;;;;;;;1999.90;999.90;;;12.70;99.90;;;;;;4954785;28;20582;-72
2022/05/11 02:49:45;;;;;;;1999.90;999.90;;;12.70;99.90;;;;;;4988634;28;20574;-71
2022/05/11 02:52:10;;;;;;;1999.90;999.90;;;12.70;99.90;;;;;;4958518;28;20164;-72
2022/05/11 02:54:36;;;;;;;1999.90;999.90;;;12.70;99.90;;;;;;4960165;28;20043;-72
2022/05/11 02:57:02;;;;;;;1999.90;999.90;;;12.70;99.90;;;;;;4931813;28;20079;-72
2022/05/11 02:59:28;;;;;;;1999.90;999.90;;;12.70;99.90;;;;;;4961083;28;20043;-72
2022/05/11 03:01:56;;;;;;;1999.90;999.90;;;12.70;99.90;;;;;;4965066;28;20661;-72
2022/05/11 03:04:22;;;;;;;1999.90;999.90;;;12.70;99.90;;;;;;4984626;28;20050;-72
2022/05/11 03:06:48;;;;;;;1999.90;999.90;;;12.70;99.90;;;;;;4931702;28;20097;-72
2022/05/11 03:09:15;;;;;;;1999.90;999.90;;;12.70;99.90;;;;;;4947501;28;20039;-72
2022/05/11 03:11:41;;;;;;;1999.90;999.90;;;12.70;99.90;;;;;;4962832;28;20085;-72
2022/05/11 03:14:09;;;;;;;1999.90;999.90;;;12.70;99.90;;;;;;4950211;28;20050;-72
2022/05/11 03:16:36;;;;;;;1999.90;999.90;;;12.70;99.90;;;;;;4932647;28;20172;-72
2022/05/11 03:19:02;;;;;;;1999.90;999.90;;;12.70;99.90;;;;;;4975576;28;20529;-72
2022/05/11 03:21:27;;;;;;;1999.90;999.90;;;12.70;99.90;;;;;;4981930;28;20043;-71
2022/05/11 03:23:54;;;;;;;1999.90;999.90;;;12.70;99.90;;;;;;4980586;28;20118;-72
2022/05/11 03:26:20;;;;;;;1999.90;999.90;;;12.70;99.90;;;;;;4931006;29;20050;-72
2022/05/11 03:28:46;;;;;;;1999.90;999.90;;;12.70;99.90;;;;;;4950256;28;20146;-72
2022/05/11 03:31:11;;;;;;;1999.90;999.90;;;12.70;99.90;;;;;;4930464;28;20130;-72
2022/05/11 03:36:21;;;;;;;1999.90;999.90;;;12.70;99.90;;;;;;4965699;28;20047;-72
2022/05/11 03:38:47;;;;;;;1999.90;999.90;;;12.70;99.90;;;;;;4953337;28;20093;-72
2022/05/11 03:41:13;;;;;;;1999.90;999.90;;;12.70;99.90;;;;;;4965044;28;20042;-72
2022/05/11 03:43:39;;;;;;;1999.90;999.90;;;12.70;99.90;;;;;;4957976;28;20059;-72
2022/05/11 03:46:04;;;;;;;1999.90;999.90;;;12.70;99.90;;;;;;4962763;28;20126;-71
2022/05/11 03:48:30;;;;;;;1999.90;999.90;;;12.70;99.90;;;;;;4963111;28;20483;-72
2022/05/11 03:50:56;;;;;;;1999.90;999.90;;;12.70;99.90;;;;;;4930271;29;20097;-72
2022/05/11 03:53:25;;;;;;;1999.90;999.90;;;12.80;99.90;;;;;;4946641;28;20051;-72
2022/05/11 03:55:51;;;;;;;1999.90;999.90;;;12.70;99.90;;;;;;4985590;28;20051;-72
2022/05/11 03:58:17;;;;;;;1999.90;999.90;;;12.80;99.90;;;;;;4995728;28;20068;-72
2022/05/11 04:00:42;;;;;;;1999.90;999.90;;;12.80;99.90;;;;;;4965081;28;20600;-72
2022/05/11 04:03:08;;;;;;;1999.90;999.90;;;12.80;99.90;;;;;;4951538;28;20051;-72
2022/05/11 04:05:34;;;;;;;1999.90;999.90;;;12.80;99.90;;;;;;4946370;28;20051;-72
2022/05/11 04:08:00;;;;;;;1999.90;999.90;;;12.80;99.90;;;;;;4962691;28;20043;-72
2022/05/11 04:10:25;;;;;;;1999.90;999.90;;;12.80;99.90;;;;;;4943914;28;20050;-72
2022/05/11 04:12:51;;;;;;;1999.90;999.90;;;12.80;99.90;;;;;;4965403;28;20458;-72
2022/05/11 04:15:17;;;;;;;1999.90;999.90;;;12.80;99.90;;;;;;4965872;28;20088;-72
2022/05/11 04:17:44;;;;;;;1999.90;999.90;;;12.80;99.90;;;;;;4948435;28;20056;-72
2022/05/11 04:20:14;;;;;;;1999.90;999.90;;;12.80;99.90;;;;;;4983169;28;20050;-72
2022/05/11 04:22:39;;;;;;;1999.90;999.90;;;12.90;99.90;;;;;;4946047;28;20043;-72
2022/05/11 04:25:06;;;;;;;1999.90;999.90;;;12.90;99.90;;;;;;4961774;28;20092;-72
2022/05/11 04:27:33;;;;;;;1999.90;999.90;;;12.90;99.90;;;;;;4946641;28;20039;-72
2022/05/11 04:30:00;;;;;;;1999.90;999.90;;;12.90;99.90;;;;;;4949431;28;20046;-72
2022/05/11 04:32:26;;;;;;;1999.90;999.90;;;13.00;99.90;;;;;;4965612;28;20051;-72
2022/05/11 04:34:52;;;;;;;1999.90;999.90;;;13.00;99.90;;;;;;4968556;28;20462;-72
2022/05/11 04:37:18;;;;;;;1999.90;999.90;;;12.90;99.90;;;;;;4967630;28;20092;-72
2022/05/11 04:39:44;;;;;;;1999.90;999.90;;;13.00;99.90;;;;;;4990719;28;20121;-72
2022/05/11 04:42:11;;;;;;;1999.90;999.90;;;13.10;99.90;;;;;;4968818;28;20157;-72
2022/05/11 04:44:37;;;;;;;1999.90;999.90;;;13.10;99.90;;;;;;4952114;28;20061;-72
2022/05/11 04:47:11;;;;;;;1999.90;999.90;;;13.10;99.90;;;;;;4948925;28;20073;-72
2022/05/11 04:49:38;;;;;;;1999.90;999.90;;;13.10;99.90;;;;;;4949090;28;20086;-72
2022/05/11 04:52:09;;;;;;;1999.90;999.90;;;13.20;99.90;;;;;;5000485;28;20096;-72
2022/05/11 04:54:40;;;;;;;1999.90;999.90;;;13.20;99.90;;;;;;4970317;28;20046;-72
2022/05/11 04:57:06;;;;;;;1999.90;999.90;;;13.20;99.90;;;;;;4998877;28;20524;-72
2022/05/11 04:59:33;;;;;;;1999.90;999.90;;;13.20;99.90;;;;;;4955353;28;20046;-72
2022/05/11 05:02:00;;;;;;;1999.90;999.90;;;13.20;99.90;;;;;;4966699;28;20051;-72
2022/05/11 05:04:30;;;;;;;1999.90;999.90;;;13.30;99.90;;;;;;4971898;28;20093;-72
2022/05/11 05:06:56;;;;;;;1999.90;999.90;;;13.30;99.90;;;;;;4949246;28;20054;-72
2022/05/11 05:09:25;;;;;;;1999.90;999.90;;;13.30;99.90;;;;;;4948079;28;20047;-72
2022/05/11 05:11:51;;;;;;;1999.90;999.90;;;13.40;99.90;;;;;;4951983;28;20545;-72
2022/05/11 05:14:17;;;;;;;1999.90;999.90;;;13.40;99.90;;;;;;5027496;28;20047;-72
2022/05/11 05:16:43;;;;;;;1999.90;999.90;;;13.40;99.90;;;;;;4958859;28;20116;-72
2022/05/11 05:19:09;;;;;;;1999.90;999.90;;;13.50;99.90;;;;;;4980107;28;20031;-72
2022/05/11 05:21:35;;;;;;;1999.90;999.90;;;13.50;99.90;;;;;;4961508;28;20129;-72
2022/05/11 05:24:01;;;;;;;1999.90;999.90;;;13.50;99.90;;;;;;4962359;28;20053;-72
2022/05/11 05:26:27;;;;;;;1999.90;999.90;;;13.60;99.90;;;;;;4956835;28;20054;-72
2022/05/11 05:31:38;;;;;;;1999.90;999.90;;;13.60;99.90;;;;;;4950374;28;20051;-72
2022/05/11 05:34:04;;;;;;;1999.90;999.90;;;13.70;99.90;;;;;;4951115;28;20043;-72
2022/05/11 05:36:36;;;;;;;1999.90;999.90;;;13.70;99.90;;;;;;4948686;28;20039;-72
2022/05/11 05:39:03;;;;;;;1999.90;999.90;;;13.70;99.90;;;;;;4964967;28;20490;-72
2022/05/11 05:41:29;;;;;;;1999.90;999.90;;;13.70;99.90;;;;;;4981020;28;20051;-72
2022/05/11 05:43:56;;;;;;;1999.90;999.90;;;13.80;99.90;;;;;;4947922;28;20051;-72
2022/05/11 05:46:22;;;;;;;1999.90;999.90;;;13.80;99.90;;;;;;4964067;28;20050;-72
2022/05/11 05:48:48;;;;;;;1999.90;999.90;;;13.90;99.90;;;;;;4951108;28;20051;-72
2022/05/11 05:51:15;;;;;;;1999.90;999.90;;;14.00;99.90;;;;;;4948390;28;20066;-72
2022/05/11 05:53:41;;;;;;;1999.90;999.90;;;14.00;99.90;;;;;;4937581;28;20055;-72
2022/05/11 05:56:11;;;;;;;1999.90;999.90;;;14.10;99.90;;;;;;4953444;28;20426;-72
2022/05/11 05:58:37;;;;;;;1999.90;999.90;;;14.10;99.90;;;;;;4948797;29;20055;-72
2022/05/11 06:01:04;;;;;;;1999.90;999.90;;;14.10;99.90;;;;;;4948349;28;20078;-72
2022/05/11 06:03:32;;;;;;;1999.90;999.90;;;14.20;99.90;;;;;;4948399;29;20403;-72
2022/05/11 06:05:57;;;;;;;1999.90;999.90;;;14.20;99.90;;;;;;4980647;28;20474;-72
2022/05/11 06:08:23;;;;;;;1999.90;999.90;;;14.30;99.90;;;;;;4951056;28;20114;-72
2022/05/11 06:10:52;;;;;;;1999.90;999.90;;;14.40;99.90;;;;;;4947115;28;20048;-72
2022/05/11 06:13:22;;;;;;;1999.90;999.90;;;14.40;99.90;;;;;;4980162;28;20051;-72
2022/05/11 06:15:51;;;;;;;1999.90;999.90;;;14.60;99.90;;;;;;4980334;28;20040;-72
2022/05/11 06:18:16;;;;;;;1999.90;999.90;;;14.80;99.90;;;;;;4979677;28;20047;-72
2022/05/11 06:20:42;;;;;;;1999.90;999.90;;;14.90;99.90;;;;;;4962495;28;20388;-72
2022/05/11 06:23:08;;;;;;;1999.90;999.90;;;15.10;99.90;;;;;;4980224;28;20047;-72
2022/05/11 06:25:37;;;;;;;1999.90;999.90;;;15.20;99.90;;;;;;4947735;29;20047;-72
2022/05/11 06:28:03;;;;;;;1999.90;999.90;;;15.40;99.90;;;;;;4980702;28;20047;-72
2022/05/11 06:30:30;;;;;;;1999.90;999.90;;;15.70;99.90;;;;;;4934076;28;20047;-72
2022/05/11 06:32:55;;;;;;;1999.90;999.90;;;15.90;99.90;;;;;;4966791;28;20070;-72
2022/05/11 06:35:22;;;;;;;1999.90;999.90;;;16.20;99.90;;;;;;4948626;28;20542;-72
2022/05/11 06:37:50;;;;;;;1999.90;999.90;;;16.50;99.90;;;;;;4979983;28;20051;-72
2022/05/11 06:40:17;;;;;;;1999.90;999.90;;;16.40;99.90;;;;;;4935339;28;20042;-72
2022/05/11 06:42:42;;;;;;;1999.90;999.90;;;16.30;99.90;;;;;;5019596;28;20097;-72
2022/05/11 06:45:09;;;;;;;1999.90;999.90;;;16.10;99.90;;;;;;4979195;28;20042;-72
2022/05/11 06:47:35;;;;;;;1999.90;999.90;;;16.00;99.90;;;;;;5010484;28;20097;-72
2022/05/11 06:50:02;;;;;;;1999.90;999.90;;;15.90;99.90;;;;;;5011254;28;20500;-72
2022/05/11 06:52:28;;;;;;;1999.90;999.90;;;15.80;99.90;;;;;;5006945;28;20048;-72
2022/05/11 07:00:28;;;;;;;1999.90;999.90;;;15.60;99.90;;;;;;4947839;28;20392;-72
2022/05/11 07:02:54;;;;;;;1999.90;999.90;;;15.60;99.90;;;;;;4965849;28;20051;-72
2022/05/11 07:05:19;;;;;;;1999.90;999.90;;;15.70;99.90;;;;;;4945705;28;20053;-72
2022/05/11 07:07:45;;;;;;;1999.90;999.90;;;15.70;99.90;;;;;;4948137;28;20506;-72
2022/05/11 07:10:11;;;;;;;1999.90;999.90;;;15.80;99.90;;;;;;4947570;28;20046;-72
2022/05/11 07:12:38;;;;;;;1999.90;999.90;;;15.80;99.90;;;;;;4931236;29;20051;-72
2022/05/11 07:15:09;;;;;;;1999.90;999.90;;;16.00;99.90;;;;;;4959676;28;20439;-72
2022/05/11 07:17:38;;;;;;;1999.90;999.90;;;16.10;99.90;;;;;;4950535;28;20410;-72
2022/05/11 07:20:13;;;;;;;1999.90;999.90;;;16.30;99.90;;;;;;4964598;28;20043;-72
2022/05/11 07:22:39;;;;;;;1999.90;999.90;;;16.50;99.90;;;;;;4936440;28;20047;-72
2022/05/11 07:25:06;;;;;;;1999.90;999.90;;;16.50;99.90;;;;;;4953315;28;20597;-72
2022/05/11 07:27:32;;;;;;;1999.90;999.90;;;16.50;99.90;;;;;;4966703;28;20400;-72
2022/05/11 07:29:58;;;;;;;1999.90;999.90;;;16.60;99.90;;;;;;4958869;28;20049;-72
2022/05/11 07:32:25;;;;;;;1999.90;999.90;;;16.80;99.90;;;;;;4949333;28;20026;-72
2022/05/11 07:34:51;;;;;;;1999.90;999.90;;;17.00;99.90;;;;;;4950404;28;20490;-72
2022/05/11 07:37:17;;;;;;;1999.90;999.90;;;17.20;99.90;;;;;;4952565;28;20058;-72
2022/05/11 07:39:43;;;;;;;1999.90;999.90;;;17.30;99.90;;;;;;4996921;28;20050;-72
2022/05/11 07:42:08;;;;;;;1999.90;999.90;;;17.30;99.90;;;;;;4966432;28;20050;-72
2022/05/11 07:44:34;;;;;;;1999.90;999.90;;;17.30;99.90;;;;;;4950150;28;20043;-72
2022/05/11 07:47:01;;;;;;;1999.90;999.90;;;17.40;99.90;;;;;;4963879;28;20046;-72
2022/05/11 07:49:26;;;;;;;1999.90;999.90;;;17.50;99.90;;;;;;4988789;28;20415;-72
2022/05/11 07:51:52;;;;;;;1999.90;999.90;;;17.40;99.90;;;;;;4943226;28;20047;-72
2022/05/11 07:54:20;;;;;;;1999.90;999.90;;;17.30;99.90;;;;;;4950077;28;20650;-72
2022/05/11 08:02:14;;;;;;;1999.90;999.90;;;17.60;99.90;;;;;;4945894;28;20047;-72
2022/05/11 08:04:41;;;;;;;1999.90;999.90;;;17.90;99.90;;;;;;4931314;28;20054;-72
2022/05/11 08:07:13;;;;;;;1999.90;999.90;;;18.10;99.90;;;;;;4950176;28;20125;-72
2022/05/11 08:09:39;;;;;;;1999.90;999.90;;;18.10;99.90;;;;;;4950703;28;20068;-72
2022/05/11 08:12:05;;;;;;;1999.90;999.90;;;18.20;99.90;;;;;;4999122;28;20058;-72
2022/05/11 08:14:31;;;;;;;1999.90;999.90;;;18.00;99.90;;;;;;4947218;28;20425;-72
2022/05/11 08:16:57;;;;;;;1999.90;999.90;;;18.00;99.90;;;;;;4943789;28;20043;-72
2022/05/11 08:19:23;;;;;;;1999.90;999.90;;;18.00;99.90;;;;;;4972053;28;20035;-72
2022/05/11 08:21:51;;;;;;;1999.90;999.90;;;18.00;99.90;;;;;;4937142;28;20101;-72
2022/05/11 08:24:17;;;;;;;1999.90;999.90;;;18.00;99.90;;;;;;4956869;28;20058;-72
2022/05/11 08:26:46;;;;;;;1999.90;999.90;;;18.10;99.90;;;;;;4953466;28;20038;-72
2022/05/11 08:33:18;;;;;;;1999.90;999.90;;;18.20;99.90;;;;;;4986066;28;20502;-72
2022/05/11 08:34:42;;;;;;;1999.90;999.90;;;18.60;99.90;;;;;;4950863;28;20039;-72
2022/05/11 08:37:07;;;;;;;1999.90;999.90;;;18.90;99.90;;;;;;4937174;28;20039;-70
2022/05/11 08:39:33;;;;;;;1999.90;999.90;;;19.10;99.90;;;;;;4955079;28;20043;-70
2022/05/11 08:42:00;;;;;;;1999.90;999.90;;;19.00;99.90;;;;;;4935049;28;20045;-70
2022/05/11 08:44:33;;;;;;;1999.90;999.90;;;19.00;99.90;;;;;;4968270;28;20043;-70
2022/05/11 08:46:58;;;;;;;;;;;19.10;99.90;;;;;;4954203;28;20078;-70
2022/05/11 08:49:45;;;;;;;1999.90;999.90;;;18.90;99.90;;;;;;4939890;28;19972;-69
2022/05/11 08:52:18;;;;;;;1999.90;999.90;;;18.70;99.90;;;;;;4986275;28;20130;-70
2022/05/11 08:54:49;;;;;;;1999.90;999.90;;;18.60;99.90;;;;;;4982797;28;20046;-70
2022/05/11 08:57:23;;;;;;;1999.90;999.90;;;18.70;99.90;;;;;;4933444;28;20097;-70
2022/05/11 08:59:53;;;;;;;1999.90;999.90;;;18.70;99.90;;;;;;4937898;28;20360;-70
2022/05/11 09:02:24;;;;;;;1999.90;999.90;;;18.60;99.90;;;;;;4983781;28;20047;-70
2022/05/11 09:04:58;;;;;;;1999.90;999.90;;;18.70;99.90;;;;;;4950713;28;20502;-72
2022/05/11 09:07:26;;;;;;;1999.90;999.90;;;18.70;99.90;;;;;;4987226;28;20042;-72
2022/05/11 09:09:53;;;;;;;1999.90;999.90;;;18.70;99.90;;;;;;4969296;28;20046;-72
2022/05/11 09:12:20;;;;;;;1999.90;999.90;;;18.70;99.90;;;;;;4950169;28;20114;-73
2022/05/11 09:14:50;;;;;;;1999.90;999.90;;;18.80;99.90;;;;;;4951852;28;20288;-73
2022/05/11 09:17:29;;;;;;;1999.90;999.90;;;18.80;99.90;;;;;;4933831;28;20055;-72
2022/05/11 09:20:12;;;;;;;1999.90;999.90;;;19.10;99.90;;;;;;4935935;28;20035;-72
2022/05/11 09:22:40;;;;;;;;;;;19.90;99.90;;;;;;4990176;28;20046;-72
2022/05/11 09:25:27;;;;;;;1999.90;999.90;;;20.60;99.90;;;;;;4937803;28;19929;-73
2022/05/11 09:28:26;;;;;;;1999.90;999.90;;;20.90;99.90;;;;;;4987607;28;20561;-72
2022/05/11 09:31:00;;;;;;;1999.90;999.90;;;21.20;99.90;;;;;;4954350;28;20039;-72
2022/05/11 09:33:30;;;;;;;1999.90;999.90;;;21.60;99.10;;;;;;4987002;28;20039;-72
2022/05/11 09:35:56;;;;;;;1999.90;999.90;;;21.80;98.30;;;;;;4976823;28;20066;-73
2022/05/11 09:38:35;;;;;;;1999.90;999.90;;;22.10;97.00;;;;;;4953510;28;20134;-72
2022/05/11 09:41:20;;;;;;;1999.90;999.90;;;22.50;97.60;;;;;;4939230;28;20115;-72
2022/05/11 09:43:50;;;;;;;1999.90;999.90;;;22.80;94.40;;;;;;4990693;28;20047;-73
2022/05/11 09:46:34;;;;;;;1999.90;999.90;;;23.20;94.50;;;;;;4950831;28;20046;-73
2022/05/11 09:49:01;;;;;;;1999.90;999.90;;;23.50;93.60;;;;;;4990236;28;20137;-73
2022/05/11 09:51:40;;;;;;;1999.90;999.90;;;23.50;91.90;;;;;;4991489;28;20147;-73
2022/05/11 09:54:18;;;;;;;1999.90;999.90;;;23.10;90.50;;;;;;4982725;28;20055;-73
2022/05/11 09:56:50;;;;;;;1999.90;999.90;;;22.90;91.60;;;;;;4966426;28;20035;-73
2022/05/11 09:59:22;;;;;;;1999.90;999.90;;;22.90;92.10;;;;;;4959748;28;20779;-73
2022/05/11 10:01:49;;;;;;;;;;;23.10;90.80;;;;;;5018250;28;20081;-73
2022/05/11 10:04:16;;;;;;;1999.90;999.90;;;23.10;86.20;;;;;;4989519;28;19922;-73
2022/05/11 10:06:52;;;;;;;1999.90;999.90;;;23.00;87.90;;;;;;4973453;28;20487;-73
2022/05/11 10:09:27;;;;;;;1999.90;999.90;;;22.90;86.10;;;;;;4995326;28;20499;-73
2022/05/11 10:11:53;;;;;;;1999.90;999.90;;;23.00;83.00;;;;;;4963016;28;20093;-73
2022/05/11 10:23:26;;;;;;;1999.90;999.90;;;23.10;77.70;;;;;;4943292;28;20147;-73
2022/05/11 10:26:06;;;;;;;1999.90;999.90;;;22.10;80.20;;;;;;4957824;28;20054;-72
2022/05/11 10:28:52;;;;;;;1999.90;999.90;;;21.90;82.00;;;;;;4959239;28;20047;-73
2022/05/11 10:31:42;;;;;;;1999.90;999.90;;;21.70;78.00;;;;;;4984620;28;20047;-73
2022/05/11 10:34:42;;;;;;;1999.90;999.90;;;21.10;79.80;;;;;;4977307;28;20046;-72
2022/05/11 10:37:54;;;;;;;1999.90;999.90;;;20.40;81.20;;;;;;4968036;28;20083;-72
2022/05/11 10:40:38;;;;;;;1999.90;999.90;;;19.80;84.80;;;;;;4932271;28;20047;-72
2022/05/11 10:43:07;;;;;;;1999.90;999.90;;;19.70;88.00;;;;;;4965415;28;20429;-72
2022/05/11 10:45:57;;;;;;;1999.90;999.90;;;19.60;89.80;;;;;;4996651;28;20039;-72
2022/05/11 10:48:53;;;;;;;1999.90;999.90;;;19.40;90.10;;;;;;4949969;28;20398;-72
2022/05/11 10:51:37;;;;;;;1999.90;999.90;;;19.20;90.60;;;;;;4978616;28;20058;-72
2022/05/11 10:54:05;;;;;;;1999.90;999.90;;;19.10;91.30;;;;;;4989666;28;20526;-72
2022/05/11 10:56:39;;;;;;;1999.90;999.90;;;19.00;92.20;;;;;;4943550;29;20510;-72
2022/05/11 10:59:31;;;;;;;1999.90;999.90;;;18.90;92.70;;;;;;5008631;28;20048;-72
2022/05/11 11:01:57;;;;;;;1999.90;999.90;;;18.90;93.40;;;;;;5045751;28;20135;-72
2022/05/11 11:04:41;;;;;;;1999.90;999.90;;;18.90;93.00;;;;;;4946738;28;20375;-73
2022/05/11 11:07:26;;;;;;;1999.90;999.90;;;18.90;93.20;;;;;;4986833;28;20043;-72
2022/05/11 11:10:01;;;;;;;1999.90;999.90;;;18.90;93.70;;;;;;4953133;28;20077;-72
2022/05/11 11:12:47;;;;;;;1999.90;999.90;;;18.90;94.20;;;;;;4976296;28;20069;-72
2022/05/11 11:15:17;;;;;;;1999.90;999.90;;;19.00;94.50;;;;;;4971973;28;20161;-71
2022/05/11 11:17:44;;;;;;;1999.90;999.90;;;19.20;93.40;;;;;;4971857;28;20373;-71
2022/05/11 11:20:12;;;;;;;1999.90;999.90;;;19.30;93.30;;;;;;4978391;28;20035;-72
2022/05/11 11:23:20;;;;;;;1999.90;999.90;;;19.40;94.30;;;;;;4951644;28;20119;-71
2022/05/11 11:25:47;;;;;;;1999.90;999.90;;;19.70;92.60;;;;;;4966570;28;20125;-71
2022/05/11 11:28:15;;;;;;;1999.90;999.90;;;19.80;91.30;;;;;;4948650;28;20043;-72
2022/05/11 11:31:02;;;;;;;1999.90;999.90;;;19.70;91.20;;;;;;4953805;28;20094;-72
2022/05/11 11:33:29;;;;;;;1999.90;999.90;;;19.80;91.80;;;;;;4947831;28;20057;-71
2022/05/11 11:36:28;;;;;;;1999.90;999.90;;;19.70;91.10;;;;;;4970772;28;20063;-71
2022/05/11 11:38:58;;;;;;;1999.90;999.90;;;19.50;89.90;;;;;;4998272;28;20032;-71
2022/05/11 11:41:52;;;;;;;1999.90;999.90;;;19.40;90.80;;;;;;4967946;28;20050;-72
2022/05/11 11:44:21;;;;;;;1999.90;999.90;;;19.40;91.50;;;;;;4949832;28;20054;-71
2022/05/11 11:46:48;;;;;;;1999.90;999.90;;;19.70;91.70;;;;;;4988534;28;20141;-71
2022/05/11 11:49:18;;;;;;;1999.90;999.90;;;20.20;92.50;;;;;;4960582;28;20059;-71
2022/05/11 11:52:00;;;;;;;1999.90;999.90;;;20.90;88.40;;;;;;4975735;28;20126;-71
2022/05/11 11:54:43;;;;;;;1999.90;999.90;;;21.40;88.70;;;;;;4949576;28;20047;-71
2022/05/11 11:57:21;;;;;;;1999.90;999.90;;;21.70;86.60;;;;;;4982498;28;20048;-72
2022/05/11 11:59:54;;;;;;;1999.90;999.90;;;21.60;81.50;;;;;;4944976;28;20126;-71
2022/05/11 12:02:33;;;;;;;1999.90;999.90;;;21.10;79.50;;;;;;4971295;28;20103;-71
2022/05/11 12:05:37;;;;;;;1999.90;999.90;;;20.70;83.20;;;;;;4944524;28;20079;-72
2022/05/11 12:16:54;;;;;;;1999.90;999.90;;;20.80;77.50;;;;;;4975709;28;20049;-72
2022/05/11 12:19:21;;;;;;;1999.90;999.90;;;20.60;77.10;;;;;;4979893;28;20068;-71
2022/05/11 12:22:06;;;;;;;1999.90;999.90;;;20.60;78.00;;;;;;4971990;28;20040;-71
2022/05/11 12:24:35;;;;;;;1999.90;999.90;;;20.70;81.60;;;;;;4940909;28;20107;-72
2022/05/11 12:27:04;;;;;;;1999.90;999.90;;;21.00;79.10;;;;;;4957119;28;20134;-72
2022/05/11 12:32:25;;;;;;;1999.90;999.90;;;21.40;76.50;;;;;;4965661;28;21682;-70
2022/05/11 12:34:51;;;;;;;1999.90;999.90;;;21.60;72.70;;;;;;4932781;28;20043;-70
2022/05/11 12:37:24;;;;;;;1999.90;999.90;;;21.70;71.30;;;;;;4966862;28;20043;-70
2022/05/11 12:39:53;;;;;;;;;;;21.60;70.80;;;;;;4946290;28;20439;-70
2022/05/11 12:42:31;;;;;;;1999.90;999.90;;;21.40;71.20;;;;;;5012153;28;19943;-70
2022/05/11 12:44:57;;;;;;;1999.90;999.90;;;21.40;69.60;;;;;;4994804;28;20559;-70
2022/05/11 12:47:26;;;;;;;1999.90;999.90;;;21.50;69.90;;;;;;4990003;28;20126;-70
2022/05/11 12:49:51;;;;;;;1999.90;999.90;;;21.70;67.20;;;;;;4954158;28;20463;-70
2022/05/11 12:52:18;;;;;;;1999.90;999.90;;;21.60;66.00;;;;;;4995208;28;20055;-70
2022/05/11 12:55:00;;;;;;;1999.90;999.90;;;21.50;67.60;;;;;;4981202;28;20050;-70
2022/05/11 12:57:36;;;;;;;1999.90;999.90;;;21.60;66.10;;;;;;4933309;28;20051;-70
2022/05/11 13:00:08;;;;;;;1999.90;999.90;;;21.60;66.50;;;;;;4932999;28;20043;-70
2022/05/11 13:02:38;;;;;;;1999.90;999.90;;;21.60;65.00;;;;;;4949064;28;20050;-70